createdAt,value
2024-02-27T00:00:04.673Z,95.04
2024-02-27T00:00:38.569Z,95.40
2024-02-27T00:01:11.938Z,95.66
2024-02-27T00:01:44.623Z,95.94
2024-02-27T00:02:17.287Z,95.37
2024-02-27T00:02:51.013Z,95.73
2024-02-27T00:03:23.760Z,95.66
2024-02-27T00:03:56.642Z,95.51
2024-02-27T00:04:29.214Z,95.43
2024-02-27T00:05:03.120Z,95.68
2024-02-27T00:05:35.840Z,95.49
2024-02-27T00:06:09.329Z,95.53
2024-02-27T00:06:42.527Z,95.44
2024-02-27T00:07:16.906Z,95.38
2024-02-27T00:07:49.768Z,95.55
2024-02-27T00:08:22.129Z,95.25
2024-02-27T00:08:54.730Z,95.33
2024-02-27T00:09:27.956Z,95.43
2024-02-27T00:10:02.525Z,95.30
2024-02-27T00:10:36.303Z,95.05
2024-02-27T00:11:09.041Z,95.44
2024-02-27T00:11:42.141Z,95.35
2024-02-27T00:12:16.643Z,94.83
2024-02-27T00:12:49.508Z,94.95
2024-02-27T00:13:22.198Z,94.95
2024-02-27T00:13:55.375Z,95.21
2024-02-27T00:14:28.963Z,95.11
2024-02-27T00:15:01.662Z,95.31
2024-02-27T00:15:34.269Z,95.15
2024-02-27T00:16:07.245Z,95.11
2024-02-27T00:16:40.945Z,95.15
2024-02-27T00:17:13.712Z,94.97
2024-02-27T00:17:46.189Z,95.08
2024-02-27T00:18:20.095Z,94.86
2024-02-27T00:18:52.944Z,95.00
2024-02-27T00:19:25.706Z,94.84
2024-02-27T00:19:58.353Z,94.82
2024-02-27T00:20:32.146Z,94.93
2024-02-27T00:21:04.772Z,94.90
2024-02-27T00:21:37.608Z,94.58
2024-02-27T00:22:10.342Z,94.96
2024-02-27T00:22:43.707Z,94.75
2024-02-27T00:23:16.397Z,94.56
2024-02-27T00:23:48.780Z,94.41
2024-02-27T00:24:21.524Z,94.48
2024-02-27T00:24:55.227Z,94.45
2024-02-27T00:25:27.902Z,94.00
2024-02-27T00:26:01.774Z,94.14
2024-02-27T00:26:34.414Z,94.29
2024-02-27T00:27:07.257Z,94.07
2024-02-27T00:27:40.749Z,93.82
2024-02-27T00:28:13.332Z,93.82
2024-02-27T00:28:45.925Z,93.32
2024-02-27T00:29:19.735Z,93.51
2024-02-27T00:29:52.531Z,93.49
2024-02-27T00:30:26.024Z,93.57
2024-02-27T00:30:58.829Z,93.28
2024-02-27T00:31:31.267Z,93.34
2024-02-27T00:32:04.502Z,93.32
2024-02-27T00:32:38.250Z,93.13
2024-02-27T00:33:10.846Z,93.14
2024-02-27T00:33:43.864Z,93.18
2024-02-27T00:34:17.131Z,93.32
2024-02-27T00:34:52.158Z,92.77
2024-02-27T00:35:24.877Z,92.75
2024-02-27T00:35:57.501Z,92.78
2024-02-27T00:36:31.148Z,92.67
2024-02-27T00:37:03.930Z,92.45
2024-02-27T00:37:36.377Z,92.44
2024-02-27T00:38:09.456Z,92.46
2024-02-27T00:38:43.493Z,92.55
2024-02-27T00:39:16.090Z,92.49
2024-02-27T00:39:48.805Z,92.21
2024-02-27T00:40:22.596Z,92.44
2024-02-27T00:40:55.594Z,92.62
2024-02-27T00:41:29.716Z,92.73
2024-02-27T00:42:03.954Z,92.52
2024-02-27T00:42:37.732Z,92.45
2024-02-27T00:43:10.504Z,92.46
2024-02-27T00:43:43.019Z,92.40
2024-02-27T00:44:15.482Z,92.45
2024-02-27T00:44:49.076Z,92.30
2024-02-27T00:45:21.975Z,92.19
2024-02-27T00:45:54.745Z,92.05
2024-02-27T00:46:27.530Z,91.84
2024-02-27T00:47:00.885Z,92.01
2024-02-27T00:47:33.324Z,91.78
2024-02-27T00:48:07.331Z,92.29
2024-02-27T00:48:40.138Z,92.22
2024-02-27T00:49:14.170Z,92.33
2024-02-27T00:49:47.031Z,92.33
2024-02-27T00:50:20.272Z,92.38
2024-02-27T00:50:55.311Z,92.18
2024-02-27T00:51:29.125Z,92.38
2024-02-27T00:52:01.544Z,92.02
2024-02-27T00:52:34.285Z,92.09
2024-02-27T00:53:08.464Z,92.19
2024-02-27T00:53:41.276Z,91.99
2024-02-27T00:54:13.822Z,91.86
2024-02-27T00:54:46.292Z,92.19
2024-02-27T00:55:19.946Z,91.92
2024-02-27T00:55:52.667Z,92.07
2024-02-27T00:56:25.635Z,91.82
2024-02-27T00:56:59.745Z,91.58
2024-02-27T00:57:33.318Z,91.41
2024-02-27T00:58:06.252Z,91.06
2024-02-27T00:58:38.965Z,91.64
2024-02-27T00:59:11.603Z,91.40
2024-02-27T00:59:45.338Z,91.61
2024-02-27T01:00:19.684Z,91.59
2024-02-27T01:00:52.981Z,91.19
2024-02-27T01:01:25.861Z,91.31
2024-02-27T01:01:59.704Z,91.54
2024-02-27T01:02:32.381Z,91.16
2024-02-27T01:03:05.566Z,91.38
2024-02-27T01:03:39.429Z,90.98
2024-02-27T01:04:12.264Z,91.04
2024-02-27T01:04:44.839Z,90.77
2024-02-27T01:05:17.747Z,90.96
2024-02-27T01:05:51.366Z,90.70
2024-02-27T01:06:24.197Z,90.69
2024-02-27T01:06:57.060Z,90.79
2024-02-27T01:07:29.929Z,90.86
2024-02-27T01:08:03.575Z,90.52
2024-02-27T01:08:35.967Z,90.72
2024-02-27T01:09:08.629Z,90.32
2024-02-27T01:09:41.372Z,90.42
2024-02-27T01:10:14.878Z,90.48
2024-02-27T01:11:37.534Z,90.20
2024-02-27T01:12:11.772Z,90.14
2024-02-27T01:12:45.251Z,90.39
2024-02-27T01:13:17.846Z,90.40
2024-02-27T01:13:50.516Z,90.22
2024-02-27T01:14:23.224Z,89.75
2024-02-27T01:14:57.053Z,90.08
2024-02-27T01:15:29.807Z,90.24
2024-02-27T01:16:02.473Z,90.04
2024-02-27T01:16:35.392Z,89.82
2024-02-27T01:17:09.216Z,89.58
2024-02-27T01:17:41.870Z,89.66
2024-02-27T01:18:14.687Z,89.55
2024-02-27T01:18:48.561Z,89.34
2024-02-27T01:19:21.941Z,89.41
2024-02-27T01:19:54.623Z,89.61
2024-02-27T01:20:28.330Z,89.63
2024-02-27T01:21:02.428Z,89.93
2024-02-27T01:21:35.061Z,89.54
2024-02-27T01:22:08.720Z,89.92
2024-02-27T01:22:41.760Z,89.35
2024-02-27T01:23:14.532Z,89.85
2024-02-27T01:23:47.425Z,89.63
2024-02-27T01:24:21.180Z,89.28
2024-02-27T01:24:53.981Z,89.52
2024-02-27T01:25:26.680Z,89.28
2024-02-27T01:25:59.501Z,89.19
2024-02-27T01:26:33.255Z,89.12
2024-02-27T01:27:06.394Z,89.37
2024-02-27T01:27:40.548Z,88.96
2024-02-27T01:28:13.217Z,88.60
2024-02-27T01:28:46.786Z,88.99
2024-02-27T01:29:19.230Z,88.98
2024-02-27T01:29:52.765Z,89.17
2024-02-27T01:30:25.496Z,88.97
2024-02-27T01:30:59.294Z,88.55
2024-02-27T01:31:31.753Z,88.98
2024-02-27T01:32:09.314Z,88.91
2024-02-27T01:32:42.246Z,88.71
2024-02-27T01:33:16.267Z,88.91
2024-02-27T01:33:49.691Z,88.64
2024-02-27T01:34:23.057Z,88.52
2024-02-27T01:34:55.936Z,88.65
2024-02-27T01:35:30.372Z,88.46
2024-02-27T01:36:03.425Z,88.31
2024-02-27T01:36:36.127Z,88.27
2024-02-27T01:37:08.600Z,88.38
2024-02-27T01:37:43.061Z,88.24
2024-02-27T01:38:15.738Z,88.16
2024-02-27T01:38:48.334Z,87.89
2024-02-27T01:39:24.333Z,87.86
2024-02-27T01:39:58.027Z,87.68
2024-02-27T01:40:30.755Z,87.52
2024-02-27T01:41:03.636Z,87.46
2024-02-27T01:41:36.420Z,87.40
2024-02-27T01:42:10.526Z,87.55
2024-02-27T01:42:46.161Z,87.24
2024-02-27T01:43:23.143Z,87.03
2024-02-27T01:43:57.033Z,86.94
2024-02-27T01:44:29.726Z,87.30
2024-02-27T01:45:02.420Z,87.42
2024-02-27T01:45:35.137Z,87.45
2024-02-27T01:46:12.442Z,87.01
2024-02-27T01:46:46.862Z,86.80
2024-02-27T01:47:21.006Z,87.15
2024-02-27T01:47:55.173Z,86.84
2024-02-27T01:48:29.037Z,86.81
2024-02-27T01:49:04.170Z,86.71
2024-02-27T01:49:37.413Z,86.29
2024-02-27T01:50:11.763Z,86.34
2024-02-27T01:50:46.734Z,86.43
2024-02-27T01:51:21.689Z,86.52
2024-02-27T01:51:56.094Z,86.66
2024-02-27T01:52:28.958Z,86.83
2024-02-27T01:53:01.932Z,86.53
2024-02-27T01:53:37.729Z,86.45
2024-02-27T01:54:14.700Z,86.42
2024-02-27T01:54:50.865Z,86.49
2024-02-27T01:55:23.500Z,86.25
2024-02-27T01:55:57.646Z,86.52
2024-02-27T01:56:30.300Z,86.27
2024-02-27T01:57:03.778Z,86.59
2024-02-27T01:57:36.716Z,86.40
2024-02-27T01:58:13.742Z,86.22
2024-02-27T01:58:47.486Z,86.28
2024-02-27T01:59:22.415Z,86.15
2024-02-27T01:59:56.021Z,86.04
2024-02-27T02:00:29.980Z,85.96
2024-02-27T02:01:04.187Z,86.13
2024-02-27T02:01:37.783Z,85.67
2024-02-27T02:02:10.639Z,86.00
2024-02-27T02:02:46.146Z,85.97
2024-02-27T02:03:23.258Z,86.06
2024-02-27T02:04:00.370Z,85.96
2024-02-27T02:04:39.030Z,85.38
2024-02-27T02:05:13.127Z,85.83
2024-02-27T02:05:46.953Z,85.69
2024-02-27T02:06:21.285Z,85.76
2024-02-27T02:06:55.318Z,85.90
2024-02-27T02:07:37.449Z,85.59
2024-02-27T02:08:10.082Z,85.83
2024-02-27T02:08:43.719Z,85.67
2024-02-27T02:09:16.485Z,86.02
2024-02-27T02:09:49.309Z,85.54
2024-02-27T02:10:22.226Z,85.60
2024-02-27T02:11:13.015Z,85.89
2024-02-27T02:11:47.600Z,85.64
2024-02-27T02:12:20.423Z,85.53
2024-02-27T02:12:54.266Z,85.60
2024-02-27T02:13:29.513Z,85.53
2024-02-27T02:14:03.475Z,85.74
2024-02-27T02:14:36.390Z,85.68
2024-02-27T02:15:10.528Z,86.19
2024-02-27T02:15:43.620Z,86.03
2024-02-27T02:16:16.105Z,85.87
2024-02-27T02:16:48.922Z,85.77
2024-02-27T02:17:22.758Z,85.55
2024-02-27T02:17:55.717Z,85.92
2024-02-27T02:18:28.419Z,85.70
2024-02-27T02:19:01.415Z,86.04
2024-02-27T02:19:35.174Z,85.39
2024-02-27T02:20:09.683Z,85.94
2024-02-27T02:20:44.016Z,86.04
2024-02-27T02:21:16.534Z,85.59
2024-02-27T02:21:52.231Z,86.24
2024-02-27T02:22:24.750Z,86.06
2024-02-27T02:22:57.297Z,86.14
2024-02-27T02:23:31.131Z,86.06
2024-02-27T02:24:05.238Z,86.06
2024-02-27T02:24:39.464Z,85.86
2024-02-27T02:25:12.992Z,86.02
2024-02-27T02:25:48.881Z,86.21
2024-02-27T02:26:26.275Z,85.84
2024-02-27T02:27:00.135Z,86.01
2024-02-27T02:27:34.075Z,85.97
2024-02-27T02:28:06.796Z,85.71
2024-02-27T02:28:40.466Z,86.04
2024-02-27T02:29:12.925Z,86.14
2024-02-27T02:29:45.425Z,86.14
2024-02-27T02:30:17.890Z,86.25
2024-02-27T02:30:51.542Z,86.24
2024-02-27T02:31:24.318Z,86.06
2024-02-27T02:31:57.142Z,85.89
2024-02-27T02:32:29.872Z,86.06
2024-02-27T02:33:03.704Z,85.97
2024-02-27T02:33:36.396Z,86.19
2024-02-27T02:34:09.283Z,85.88
2024-02-27T02:34:42.280Z,86.03
2024-02-27T02:35:15.328Z,85.86
2024-02-27T02:35:50.279Z,85.88
2024-02-27T02:36:23.189Z,85.74
2024-02-27T02:36:55.902Z,86.09
2024-02-27T02:37:29.333Z,85.83
2024-02-27T02:38:04.264Z,86.20
2024-02-27T02:38:36.903Z,86.18
2024-02-27T02:39:10.575Z,86.15
2024-02-27T02:39:43.206Z,86.04
2024-02-27T02:40:18.917Z,85.95
2024-02-27T02:40:51.854Z,85.93
2024-02-27T02:41:24.617Z,86.06
2024-02-27T02:41:58.122Z,85.57
2024-02-27T02:42:31.580Z,85.69
2024-02-27T02:43:04.678Z,85.62
2024-02-27T02:43:37.533Z,85.69
2024-02-27T02:44:10.837Z,85.85
2024-02-27T02:44:45.117Z,85.87
2024-02-27T02:45:18.205Z,85.78
2024-02-27T02:45:53.376Z,86.15
2024-02-27T02:46:30.153Z,85.63
2024-02-27T02:47:03.944Z,85.85
2024-02-27T02:47:37.364Z,85.98
2024-02-27T02:48:11.062Z,86.07
2024-02-27T02:48:44.435Z,85.63
2024-02-27T02:49:33.673Z,86.05
2024-02-27T02:50:08.938Z,85.93
2024-02-27T02:50:42.366Z,86.14
2024-02-27T02:51:18.131Z,86.17
2024-02-27T02:51:50.964Z,85.72
2024-02-27T02:52:32.434Z,85.88
2024-02-27T02:53:05.710Z,86.07
2024-02-27T02:53:39.650Z,86.12
2024-02-27T02:54:12.988Z,85.49
2024-02-27T02:54:45.970Z,85.83
2024-02-27T02:55:18.775Z,86.21
2024-02-27T02:55:52.572Z,85.94
2024-02-27T02:56:25.299Z,86.01
2024-02-27T02:56:58.102Z,85.99
2024-02-27T02:57:31.151Z,85.62
2024-02-27T02:58:05.339Z,85.74
2024-02-27T02:58:39.274Z,85.77
2024-02-27T02:59:11.717Z,85.79
2024-02-27T02:59:45.518Z,85.55
2024-02-27T03:00:20.322Z,85.62
2024-02-27T03:00:53.384Z,85.72
2024-02-27T03:01:26.329Z,85.85
2024-02-27T03:01:59.042Z,86.03
2024-02-27T03:02:33.145Z,85.82
2024-02-27T03:03:06.038Z,85.86
2024-02-27T03:03:38.905Z,85.62
2024-02-27T03:04:12.194Z,85.81
2024-02-27T03:04:46.516Z,86.02
2024-02-27T03:05:19.302Z,86.04
2024-02-27T03:05:52.486Z,86.30
2024-02-27T03:06:27.829Z,86.19
2024-02-27T03:07:00.797Z,85.98
2024-02-27T03:07:34.355Z,86.19
2024-02-27T03:08:09.998Z,85.94
2024-02-27T03:08:44.302Z,85.92
2024-02-27T03:09:17.051Z,85.83
2024-02-27T03:09:49.833Z,85.86
2024-02-27T03:10:22.497Z,86.02
2024-02-27T03:10:56.994Z,86.25
2024-02-27T03:11:29.935Z,85.87
2024-02-27T03:12:03.196Z,85.95
2024-02-27T03:12:35.679Z,86.00
2024-02-27T03:13:24.455Z,86.05
2024-02-27T03:13:57.846Z,86.27
2024-02-27T03:14:30.290Z,85.90
2024-02-27T03:15:03.228Z,86.39
2024-02-27T03:15:36.417Z,85.80
2024-02-27T03:16:24.601Z,85.90
2024-02-27T03:16:58.338Z,86.02
2024-02-27T03:17:31.461Z,86.18
2024-02-27T03:18:05.248Z,85.81
2024-02-27T03:18:38.812Z,86.05
2024-02-27T03:19:24.277Z,86.25
2024-02-27T03:19:56.929Z,86.13
2024-02-27T03:20:29.671Z,86.06
2024-02-27T03:21:02.350Z,86.11
2024-02-27T03:21:37.466Z,85.85
2024-02-27T03:22:10.820Z,86.04
2024-02-27T03:22:43.970Z,85.99
2024-02-27T03:23:16.488Z,86.27
2024-02-27T03:23:50.176Z,86.01
2024-02-27T03:24:22.970Z,86.28
2024-02-27T03:24:55.811Z,86.22
2024-02-27T03:25:29.960Z,86.12
2024-02-27T03:26:02.894Z,86.21
2024-02-27T03:26:35.909Z,86.39
2024-02-27T03:27:08.975Z,86.25
2024-02-27T03:27:43.169Z,86.26
2024-02-27T03:28:27.377Z,86.06
2024-02-27T03:29:00.231Z,86.07
2024-02-27T03:29:33.237Z,86.32
2024-02-27T03:30:08.903Z,85.98
2024-02-27T03:30:41.512Z,86.15
2024-02-27T03:31:22.513Z,85.73
2024-02-27T03:31:55.134Z,85.99
2024-02-27T03:32:28.748Z,86.18
2024-02-27T03:33:01.610Z,85.93
2024-02-27T03:33:34.559Z,85.87
2024-02-27T03:34:22.349Z,86.10
2024-02-27T03:34:56.438Z,86.08
2024-02-27T03:35:29.499Z,86.17
2024-02-27T03:36:04.506Z,85.84
2024-02-27T03:36:41.679Z,85.87
2024-02-27T03:37:16.566Z,86.08
2024-02-27T03:37:49.174Z,85.87
2024-02-27T03:38:32.803Z,86.18
2024-02-27T03:39:06.234Z,85.97
2024-02-27T03:39:38.831Z,86.29
2024-02-27T03:40:12.077Z,86.01
2024-02-27T03:40:44.836Z,86.21
2024-02-27T03:41:20.478Z,86.20
2024-02-27T03:41:53.330Z,86.15
2024-02-27T03:42:25.832Z,86.15
2024-02-27T03:42:59.812Z,86.04
2024-02-27T03:43:32.504Z,86.22
2024-02-27T03:44:05.405Z,86.22
2024-02-27T03:44:38.406Z,86.29
2024-02-27T03:45:12.712Z,86.25
2024-02-27T03:45:46.445Z,86.22
2024-02-27T03:46:19.477Z,86.29
2024-02-27T03:46:51.922Z,86.10
2024-02-27T03:47:25.577Z,86.27
2024-02-27T03:47:58.254Z,86.21
2024-02-27T03:48:31.123Z,86.07
2024-02-27T03:49:05.050Z,86.13
2024-02-27T03:49:37.869Z,86.19
2024-02-27T03:50:11.017Z,86.16
2024-02-27T03:50:44.842Z,86.13
2024-02-27T03:51:17.516Z,85.91
2024-02-27T03:51:54.039Z,86.03
2024-02-27T03:52:26.475Z,86.04
2024-02-27T03:53:00.151Z,86.23
2024-02-27T03:53:33.150Z,86.38
2024-02-27T03:54:08.639Z,85.96
2024-02-27T03:54:41.426Z,86.37
2024-02-27T03:55:15.013Z,86.04
2024-02-27T03:55:47.714Z,85.93
2024-02-27T03:56:20.813Z,86.12
2024-02-27T03:56:53.215Z,86.13
2024-02-27T03:57:26.627Z,86.02
2024-02-27T03:57:59.333Z,86.05
2024-02-27T03:58:31.963Z,86.31
2024-02-27T03:59:04.446Z,86.42
2024-02-27T03:59:38.393Z,86.21
2024-02-27T04:00:12.846Z,86.12
2024-02-27T04:00:46.067Z,86.07
2024-02-27T04:01:19.301Z,86.18
2024-02-27T04:01:53.528Z,86.07
2024-02-27T04:02:26.290Z,86.17
2024-02-27T04:02:58.755Z,86.00
2024-02-27T04:03:32.622Z,86.29
2024-02-27T04:04:05.770Z,86.46
2024-02-27T04:04:38.176Z,85.99
2024-02-27T04:05:11.410Z,86.24
2024-02-27T04:05:45.592Z,86.39
2024-02-27T04:06:18.258Z,86.31
2024-02-27T04:06:52.493Z,86.28
2024-02-27T04:07:26.234Z,86.32
2024-02-27T04:07:58.792Z,86.41
2024-02-27T04:08:31.361Z,86.41
2024-02-27T04:09:05.394Z,86.40
2024-02-27T04:09:39.222Z,86.17
2024-02-27T04:10:12.552Z,86.16
2024-02-27T04:10:45.441Z,86.36
2024-02-27T04:11:19.037Z,86.35
2024-02-27T04:11:53.931Z,86.12
2024-02-27T04:12:26.810Z,86.07
2024-02-27T04:12:59.579Z,86.09
2024-02-27T04:13:33.369Z,86.04
2024-02-27T04:14:23.014Z,86.07
2024-02-27T04:14:56.571Z,86.16
2024-02-27T04:15:29.426Z,86.14
2024-02-27T04:16:02.168Z,86.31
2024-02-27T04:16:37.390Z,85.82
2024-02-27T04:17:09.892Z,86.13
2024-02-27T04:17:42.584Z,86.10
2024-02-27T04:18:15.218Z,85.75
2024-02-27T04:18:48.116Z,85.66
2024-02-27T04:19:22.131Z,85.85
2024-02-27T04:19:55.141Z,85.77
2024-02-27T04:20:27.825Z,85.45
2024-02-27T04:21:00.732Z,85.55
2024-02-27T04:21:33.294Z,85.84
2024-02-27T04:22:09.620Z,85.94
2024-02-27T04:22:42.307Z,85.68
2024-02-27T04:23:14.944Z,85.69
2024-02-27T04:23:47.771Z,85.64
2024-02-27T04:24:22.159Z,85.89
2024-02-27T04:24:57.105Z,85.70
2024-02-27T04:25:29.597Z,85.58
2024-02-27T04:26:03.242Z,85.96
2024-02-27T04:26:35.966Z,85.67
2024-02-27T04:27:08.571Z,85.87
2024-02-27T04:27:41.512Z,85.85
2024-02-27T04:28:15.875Z,85.57
2024-02-27T04:29:08.512Z,86.00
2024-02-27T04:29:41.782Z,85.68
2024-02-27T04:30:15.993Z,85.86
2024-02-27T04:30:48.759Z,85.79
2024-02-27T04:31:21.667Z,85.98
2024-02-27T04:31:55.499Z,85.71
2024-02-27T04:32:28.209Z,85.98
2024-02-27T04:33:01.865Z,86.20
2024-02-27T04:33:35.216Z,86.16
2024-02-27T04:34:09.177Z,85.76
2024-02-27T04:34:43.057Z,86.22
2024-02-27T04:35:16.116Z,85.98
2024-02-27T04:35:49.648Z,85.80
2024-02-27T04:36:23.390Z,86.21
2024-02-27T04:36:57.996Z,85.68
2024-02-27T04:37:32.982Z,85.86
2024-02-27T04:38:07.463Z,85.83
2024-02-27T04:38:42.025Z,85.81
2024-02-27T04:39:15.482Z,86.13
2024-02-27T04:39:48.192Z,85.88
2024-02-27T04:40:22.104Z,85.73
2024-02-27T04:40:54.852Z,86.00
2024-02-27T04:41:27.771Z,86.35
2024-02-27T04:42:01.465Z,86.06
2024-02-27T04:42:34.416Z,86.21
2024-02-27T04:43:07.212Z,86.04
2024-02-27T04:43:40.606Z,85.86
2024-02-27T04:44:13.305Z,86.29
2024-02-27T04:44:46.723Z,86.36
2024-02-27T04:45:19.759Z,86.43
2024-02-27T04:45:56.381Z,86.56
2024-02-27T04:46:29.138Z,86.62
2024-02-27T04:47:02.494Z,86.59
2024-02-27T04:47:35.527Z,86.75
2024-02-27T04:48:08.853Z,86.65
2024-02-27T04:48:42.602Z,87.02
2024-02-27T04:49:16.252Z,86.61
2024-02-27T04:49:48.932Z,86.94
2024-02-27T04:50:21.732Z,86.75
2024-02-27T04:50:54.649Z,87.20
2024-02-27T04:51:28.856Z,87.17
2024-02-27T04:52:01.453Z,87.11
2024-02-27T04:52:35.926Z,87.20
2024-02-27T04:53:09.396Z,87.20
2024-02-27T04:53:42.230Z,86.96
2024-02-27T04:54:14.904Z,87.15
2024-02-27T04:55:02.420Z,86.88
2024-02-27T04:55:36.286Z,86.91
2024-02-27T04:56:08.935Z,86.76
2024-02-27T04:56:42.377Z,86.95
2024-02-27T04:57:15.238Z,87.09
2024-02-27T04:57:49.170Z,86.80
2024-02-27T04:58:21.890Z,86.94
2024-02-27T04:58:55.277Z,87.03
2024-02-27T04:59:28.025Z,87.13
2024-02-27T05:00:01.520Z,87.14
2024-02-27T05:00:34.120Z,87.17
2024-02-27T05:01:11.224Z,87.26
2024-02-27T05:01:50.170Z,87.21
2024-02-27T05:02:24.051Z,87.34
2024-02-27T05:03:59.785Z,87.26
2024-02-27T05:04:33.128Z,87.49
2024-02-27T05:05:08.099Z,87.41
2024-02-27T05:05:40.881Z,87.54
2024-02-27T05:06:15.096Z,87.74
2024-02-27T05:07:01.980Z,87.48
2024-02-27T05:07:36.458Z,87.75
2024-02-27T05:08:10.228Z,87.47
2024-02-27T05:08:42.632Z,87.67
2024-02-27T05:09:15.649Z,87.70
2024-02-27T05:09:59.724Z,87.77
2024-02-27T05:10:33.437Z,87.44
2024-02-27T05:11:06.324Z,87.77
2024-02-27T05:11:40.513Z,87.85
2024-02-27T05:12:13.587Z,87.59
2024-02-27T05:12:46.392Z,87.64
2024-02-27T05:13:19.907Z,87.76
2024-02-27T05:13:52.616Z,87.53
2024-02-27T05:14:27.170Z,87.61
2024-02-27T05:14:59.826Z,87.89
2024-02-27T05:15:33.553Z,88.04
2024-02-27T05:16:07.915Z,87.77
2024-02-27T05:16:41.350Z,87.73
2024-02-27T05:17:14.082Z,87.52
2024-02-27T05:17:47.856Z,87.45
2024-02-27T05:18:20.870Z,87.40
2024-02-27T05:18:55.998Z,87.41
2024-02-27T05:19:29.774Z,87.48
2024-02-27T05:20:02.234Z,87.70
2024-02-27T05:20:34.686Z,87.59
2024-02-27T05:21:08.129Z,87.63
2024-02-27T05:21:41.831Z,87.35
2024-02-27T05:22:14.447Z,87.46
2024-02-27T05:22:48.478Z,87.36
2024-02-27T05:23:21.474Z,87.52
2024-02-27T05:23:54.919Z,87.69
2024-02-27T05:24:27.681Z,87.50
2024-02-27T05:25:00.362Z,87.33
2024-02-27T05:26:46.102Z,87.23
2024-02-27T05:27:20.826Z,87.46
2024-02-27T05:27:54.599Z,87.61
2024-02-27T05:28:27.207Z,87.70
2024-02-27T05:29:01.251Z,87.56
2024-02-27T05:29:34.357Z,87.48
2024-02-27T05:30:08.602Z,87.39
2024-02-27T05:30:44.175Z,87.63
2024-02-27T05:31:25.526Z,87.17
2024-02-27T05:31:58.223Z,87.51
2024-02-27T05:32:32.497Z,87.05
2024-02-27T05:33:06.432Z,87.34
2024-02-27T05:33:39.764Z,87.18
2024-02-27T05:34:36.668Z,87.35
2024-02-27T05:35:09.959Z,86.85
2024-02-27T05:35:43.351Z,86.86
2024-02-27T05:36:15.830Z,86.78
2024-02-27T05:36:48.673Z,87.00
2024-02-27T05:37:21.408Z,86.84
2024-02-27T05:37:56.199Z,87.07
2024-02-27T05:38:28.726Z,86.84
2024-02-27T05:39:01.615Z,86.71
2024-02-27T05:39:34.671Z,86.84
2024-02-27T05:40:12.331Z,86.81
2024-02-27T05:40:45.343Z,86.59
2024-02-27T05:41:19.321Z,86.75
2024-02-27T05:41:52.969Z,86.50
2024-02-27T05:42:27.235Z,86.44
2024-02-27T05:42:59.985Z,86.43
2024-02-27T05:43:33.220Z,86.58
2024-02-27T05:44:06.235Z,86.70
2024-02-27T05:44:40.024Z,86.30
2024-02-27T05:45:13.279Z,86.78
2024-02-27T05:46:00.871Z,86.49
2024-02-27T05:46:35.313Z,86.42
2024-02-27T05:47:08.354Z,86.60
2024-02-27T05:47:41.014Z,86.51
2024-02-27T05:48:15.273Z,86.02
2024-02-27T05:48:50.941Z,85.93
2024-02-27T05:49:23.661Z,86.02
2024-02-27T05:49:56.807Z,86.18
2024-02-27T05:50:30.283Z,86.28
2024-02-27T05:51:03.109Z,85.95
2024-02-27T05:52:27.142Z,86.25
2024-02-27T05:53:01.282Z,86.29
2024-02-27T05:53:35.303Z,86.03
2024-02-27T05:54:08.166Z,85.83
2024-02-27T05:54:42.072Z,85.88
2024-02-27T05:55:15.098Z,85.70
2024-02-27T05:55:47.848Z,85.72
2024-02-27T05:56:23.064Z,85.94
2024-02-27T05:56:56.588Z,85.74
2024-02-27T05:57:29.095Z,85.55
2024-02-27T05:58:02.380Z,85.69
2024-02-27T05:58:35.061Z,86.11
2024-02-27T05:59:08.953Z,86.11
2024-02-27T05:59:41.680Z,85.69
2024-02-27T06:00:16.035Z,85.88
2024-02-27T06:00:48.867Z,85.53
2024-02-27T06:01:22.822Z,85.98
2024-02-27T06:01:55.598Z,85.95
2024-02-27T06:02:28.434Z,85.58
2024-02-27T06:03:01.022Z,85.64
2024-02-27T06:03:54.965Z,85.78
2024-02-27T06:04:27.803Z,85.78
2024-02-27T06:05:03.739Z,86.07
2024-02-27T06:05:40.215Z,86.01
2024-02-27T06:06:13.820Z,85.65
2024-02-27T06:06:46.728Z,85.43
2024-02-27T06:07:20.430Z,85.67
2024-02-27T06:07:53.254Z,85.83
2024-02-27T06:08:27.561Z,86.21
2024-02-27T06:09:01.164Z,85.99
2024-02-27T06:10:21.028Z,85.96
2024-02-27T06:10:54.779Z,86.10
2024-02-27T06:11:27.793Z,85.87
2024-02-27T06:12:01.283Z,85.76
2024-02-27T06:12:46.903Z,85.49
2024-02-27T06:13:20.447Z,85.88
2024-02-27T06:13:53.008Z,85.93
2024-02-27T06:14:25.731Z,85.74
2024-02-27T06:14:58.489Z,85.56
2024-02-27T06:15:35.239Z,85.80
2024-02-27T06:16:09.397Z,86.06
2024-02-27T06:16:42.025Z,85.87
2024-02-27T06:17:14.676Z,85.67
2024-02-27T06:17:48.317Z,85.95
2024-02-27T06:18:21.197Z,85.57
2024-02-27T06:18:54.901Z,85.68
2024-02-27T06:19:28.734Z,85.83
2024-02-27T06:20:04.267Z,85.64
2024-02-27T06:20:55.558Z,85.21
2024-02-27T06:21:46.702Z,85.51
2024-02-27T06:22:20.706Z,85.41
2024-02-27T06:22:53.377Z,85.27
2024-02-27T06:23:28.510Z,85.31
2024-02-27T06:24:01.923Z,85.75
2024-02-27T06:24:35.803Z,85.57
2024-02-27T06:25:11.185Z,85.41
2024-02-27T06:25:43.600Z,85.66
2024-02-27T06:26:16.810Z,85.81
2024-02-27T06:26:50.655Z,85.18
2024-02-27T06:27:23.391Z,85.19
2024-02-27T06:27:56.526Z,85.51
2024-02-27T06:28:29.201Z,85.48
2024-02-27T06:29:02.745Z,85.33
2024-02-27T06:29:35.686Z,85.22
2024-02-27T06:30:09.055Z,85.28
2024-02-27T06:30:41.884Z,85.45
2024-02-27T06:31:15.613Z,85.15
2024-02-27T06:31:48.501Z,85.25
2024-02-27T06:32:21.317Z,84.68
2024-02-27T06:32:54.765Z,84.83
2024-02-27T06:34:14.336Z,84.68
2024-02-27T06:34:49.254Z,84.88
2024-02-27T06:35:22.417Z,84.33
2024-02-27T06:35:55.113Z,84.53
2024-02-27T06:36:28.389Z,85.25
2024-02-27T06:37:02.059Z,85.12
2024-02-27T06:37:34.790Z,84.54
2024-02-27T06:38:07.471Z,84.38
2024-02-27T06:38:42.706Z,84.12
2024-02-27T06:39:15.307Z,84.16
2024-02-27T06:39:48.786Z,83.96
2024-02-27T06:40:21.337Z,83.89
2024-02-27T06:40:55.072Z,83.95
2024-02-27T06:41:28.346Z,83.60
2024-02-27T06:42:02.368Z,83.49
2024-02-27T06:42:38.194Z,83.34
2024-02-27T06:43:11.075Z,83.57
2024-02-27T06:43:43.617Z,83.53
2024-02-27T06:44:17.239Z,83.30
2024-02-27T06:44:49.990Z,83.58
2024-02-27T06:45:22.941Z,83.60
2024-02-27T06:45:56.063Z,83.33
2024-02-27T06:46:29.711Z,83.40
2024-02-27T06:47:02.433Z,82.91
2024-02-27T06:47:38.091Z,83.48
2024-02-27T06:48:11.675Z,83.47
2024-02-27T06:48:46.562Z,82.92
2024-02-27T06:49:22.976Z,82.29
2024-02-27T06:49:59.737Z,82.23
2024-02-27T06:50:32.557Z,82.31
2024-02-27T06:51:07.780Z,82.08
2024-02-27T06:51:42.700Z,81.62
2024-02-27T06:52:15.242Z,81.76
2024-02-27T06:52:47.869Z,82.10
2024-02-27T06:53:20.261Z,81.85
2024-02-27T06:53:55.311Z,81.57
2024-02-27T06:54:28.188Z,81.42
2024-02-27T06:55:00.793Z,81.23
2024-02-27T06:55:34.149Z,80.98
2024-02-27T06:56:06.987Z,80.47
2024-02-27T06:56:39.823Z,80.63
2024-02-27T06:57:12.472Z,80.63
2024-02-27T06:57:46.359Z,80.41
2024-02-27T06:58:19.544Z,80.56
2024-02-27T06:58:53.799Z,80.52
2024-02-27T06:59:27.520Z,80.09
2024-02-27T07:00:00.466Z,80.19
2024-02-27T07:00:33.055Z,80.14
2024-02-27T07:01:05.617Z,79.34
2024-02-27T07:01:39.519Z,79.65
2024-02-27T07:02:12.445Z,79.69
2024-02-27T07:02:47.727Z,79.06
2024-02-27T07:03:22.184Z,78.92
2024-02-27T07:03:56.246Z,78.67
2024-02-27T07:04:28.901Z,79.06
2024-02-27T07:05:01.632Z,78.84
2024-02-27T07:05:42.758Z,79.33
2024-02-27T07:06:21.092Z,78.67
2024-02-27T07:06:53.688Z,78.60
2024-02-27T07:07:26.368Z,78.08
2024-02-27T07:07:59.207Z,78.10
2024-02-27T07:08:32.942Z,77.91
2024-02-27T07:09:09.741Z,77.87
2024-02-27T07:09:42.323Z,77.69
2024-02-27T07:10:17.366Z,77.25
2024-02-27T07:10:51.570Z,76.74
2024-02-27T07:11:24.589Z,75.95
2024-02-27T07:11:57.682Z,75.59
2024-02-27T07:12:34.007Z,74.73
2024-02-27T07:13:07.952Z,74.76
2024-02-27T07:13:40.614Z,73.90
2024-02-27T07:14:13.916Z,73.93
2024-02-27T07:14:48.848Z,74.74
2024-02-27T07:15:22.039Z,74.64
2024-02-27T07:15:55.000Z,73.74
2024-02-27T07:16:27.986Z,73.58
2024-02-27T07:17:02.069Z,73.75
2024-02-27T07:17:34.598Z,73.20
2024-02-27T07:18:07.360Z,73.46
2024-02-27T07:18:39.994Z,73.35
2024-02-27T07:19:13.441Z,73.01
2024-02-27T07:19:46.475Z,72.34
2024-02-27T07:20:19.516Z,71.92
2024-02-27T07:20:52.245Z,70.87
2024-02-27T07:21:26.251Z,70.05
2024-02-27T07:21:59.096Z,70.16